createdAt,value
2023-05-01T00:02:11.892Z,100927.56
2023-05-01T00:04:39.891Z,100922.34
2023-05-01T00:07:07.172Z,100935.34
2023-05-01T00:09:34.998Z,100928.38
2023-05-01T00:12:03.752Z,100932.72
2023-05-01T00:14:31.333Z,100935.34
2023-05-01T00:16:59.295Z,100935.38
2023-05-01T00:19:27.123Z,100925.91
2023-05-01T00:21:54.978Z,100922.53
2023-05-01T00:24:22.805Z,100928.66
2023-05-01T00:26:52.738Z,100920.03
2023-05-01T00:29:20.249Z,100923.59
2023-05-01T00:31:48.111Z,100924.47
2023-05-01T00:34:16.000Z,100921.91
2023-05-01T00:36:43.524Z,100925.34
2023-05-01T00:39:11.547Z,100916.72
2023-05-01T00:41:39.024Z,100925.38
2023-05-01T00:44:06.782Z,100924.53
2023-05-01T00:46:34.420Z,100921.91
2023-05-01T00:49:01.683Z,100926.28
2023-05-01T00:51:30.164Z,100924.53
2023-05-01T00:53:57.320Z,100928.88
2023-05-01T00:56:26.412Z,100922.81
2023-05-01T00:58:53.610Z,100932.34
2023-05-01T01:01:24.672Z,100931.44
2023-05-01T01:03:55.680Z,100928.91
2023-05-01T01:06:25.562Z,100929.75
2023-05-01T01:09:00.551Z,100920.19
2023-05-01T01:11:33.406Z,100921.97
2023-05-01T01:14:13.184Z,100928.91
2023-05-01T01:16:41.627Z,100925.41
2023-05-01T01:19:20.756Z,100925.44
2023-05-01T01:21:50.418Z,100938.47
2023-05-01T01:24:55.276Z,100929.78
2023-05-01T01:27:33.637Z,100936.72
2023-05-01T01:30:33.995Z,100933.25
2023-05-01T01:33:18.874Z,100919.34
2023-05-01T01:35:49.792Z,100934.09
2023-05-01T01:38:17.867Z,100934.09
2023-05-01T01:40:54.120Z,100937.56
2023-05-01T01:43:21.990Z,100933.22
2023-05-01T01:45:53.584Z,100934.94
2023-05-01T01:48:23.285Z,100931.44
2023-05-01T01:50:51.224Z,100937.53
2023-05-01T01:53:19.114Z,100940.13
2023-05-01T01:55:45.956Z,100941.03
2023-05-01T01:58:13.567Z,100942.75
2023-05-01T02:00:42.046Z,100945.34
2023-05-01T02:03:10.239Z,100949.69
2023-05-01T02:05:38.948Z,100950.53
2023-05-01T02:08:06.628Z,100949.66
2023-05-01T02:10:34.941Z,100953.13
2023-05-01T02:13:02.436Z,100953.16
2023-05-01T02:15:30.503Z,100951.38
2023-05-01T02:17:58.475Z,100954.78
2023-05-01T02:20:25.672Z,100946.97
2023-05-01T02:22:53.768Z,100944.31
2023-05-01T02:25:22.292Z,100941.63
2023-05-01T02:28:01.616Z,100946.03
2023-05-01T02:30:45.131Z,100943.38
2023-05-01T02:33:12.965Z,100939.88
2023-05-01T02:35:44.484Z,100939.91
2023-05-01T02:38:12.995Z,100945.09
2023-05-01T02:40:41.825Z,100942.50
2023-05-01T02:43:10.329Z,100932.94
2023-05-01T02:45:38.741Z,100945.06
2023-05-01T02:48:07.305Z,100943.34
2023-05-01T02:50:34.500Z,100939.03
2023-05-01T02:53:01.673Z,100937.31
2023-05-01T02:55:29.730Z,100939.94
2023-05-01T02:58:00.166Z,100935.59
2023-05-01T03:00:28.672Z,100934.72
2023-05-01T03:02:56.979Z,100934.66
2023-05-01T03:05:24.997Z,100933.78
2023-05-01T03:07:52.891Z,100938.09
2023-05-01T03:10:21.241Z,100930.25
2023-05-01T03:12:49.067Z,100926.84
2023-05-01T03:15:18.535Z,100928.59
2023-05-01T03:17:46.149Z,100924.19
2023-05-01T03:20:14.723Z,100924.19
2023-05-01T03:22:42.605Z,100923.31
2023-05-01T03:25:11.966Z,100917.22
2023-05-01T03:27:39.898Z,100925.88
2023-05-01T03:30:10.184Z,100918.94
2023-05-01T03:32:38.606Z,100914.59
2023-05-01T03:35:09.480Z,100922.41
2023-05-01T03:37:37.637Z,100915.47
2023-05-01T03:40:07.633Z,100909.41
2023-05-01T03:42:35.341Z,100918.94
2023-05-01T03:45:03.231Z,100917.22
2023-05-01T03:47:31.428Z,100918.06
2023-05-01T03:49:59.422Z,100915.41
2023-05-01T03:52:27.397Z,100914.53
2023-05-01T03:54:55.372Z,100916.25
2023-05-01T03:57:23.506Z,100927.50
2023-05-01T03:59:50.993Z,100923.13
2023-05-01T04:02:21.909Z,100923.13
2023-05-01T04:04:50.016Z,100917.91
2023-05-01T04:07:17.811Z,100911.00
2023-05-01T04:09:45.849Z,100912.72
2023-05-01T04:12:13.448Z,100914.44
2023-05-01T04:14:41.440Z,100908.41
2023-05-01T04:17:08.951Z,100914.44
2023-05-01T04:19:36.509Z,100908.28
2023-05-01T04:22:05.622Z,100913.50
2023-05-01T04:24:33.249Z,100915.25
2023-05-01T04:27:00.864Z,100913.50
2023-05-01T04:29:32.926Z,100909.19
2023-05-01T04:32:01.102Z,100920.50
2023-05-01T04:34:29.570Z,100917.06
2023-05-01T04:36:59.659Z,100917.88
2023-05-01T04:39:27.536Z,100927.41
2023-05-01T04:41:55.443Z,100928.31
2023-05-01T04:44:23.117Z,100930.03
2023-05-01T04:46:53.405Z,100931.75
2023-05-01T04:49:21.560Z,100934.38
2023-05-01T04:51:49.530Z,100932.66
2023-05-01T04:54:17.395Z,100930.94
2023-05-01T04:56:45.684Z,100927.44
2023-05-01T04:59:13.361Z,100921.41
2023-05-01T05:01:41.104Z,100922.28
2023-05-01T05:04:09.266Z,100919.69
2023-05-01T05:06:37.337Z,100928.38
2023-05-01T05:09:05.583Z,100928.38
2023-05-01T05:11:33.546Z,100921.44
2023-05-01T05:14:01.628Z,100918.00
2023-05-01T05:16:29.120Z,100928.38
2023-05-01T05:18:57.798Z,100930.13
2023-05-01T05:21:25.259Z,100923.19
2023-05-01T05:23:53.712Z,100920.59
2023-05-01T05:26:21.895Z,100931.09
2023-05-01T05:28:50.911Z,100930.25
2023-05-01T05:31:18.769Z,100930.25
2023-05-01T05:33:46.991Z,100919.84
2023-05-01T05:36:14.780Z,100924.19
2023-05-01T05:38:42.493Z,100929.41
2023-05-01T05:41:10.072Z,100933.75
2023-05-01T05:43:37.624Z,100939.88
2023-05-01T05:46:05.527Z,100935.56
2023-05-01T05:48:33.092Z,100947.75
2023-05-01T05:51:00.552Z,100947.72
2023-05-01T05:53:28.499Z,100956.41
2023-05-01T05:55:56.004Z,100951.16
2023-05-01T05:58:24.678Z,100952.06
2023-05-01T06:00:56.355Z,100952.94
2023-05-01T06:03:24.048Z,100946.84
2023-05-01T06:05:51.715Z,100943.38
2023-05-01T06:08:18.872Z,100947.72
2023-05-01T06:10:46.410Z,100952.91
2023-05-01T06:13:14.825Z,100954.69
2023-05-01T06:15:43.206Z,100952.06
2023-05-01T06:18:10.462Z,100952.94
2023-05-01T06:20:38.681Z,100953.81
2023-05-01T06:23:06.850Z,100948.66
2023-05-01T06:25:34.757Z,100953.88
2023-05-01T06:28:04.504Z,100952.19
2023-05-01T06:30:32.173Z,100958.25
2023-05-01T06:33:00.064Z,100950.47
2023-05-01T06:35:28.110Z,100961.78
2023-05-01T06:37:56.311Z,100967.91
2023-05-01T06:40:24.284Z,100970.50
2023-05-01T06:42:53.762Z,100966.16
2023-05-01T06:45:21.982Z,100964.47
2023-05-01T06:47:49.975Z,100962.75
2023-05-01T06:50:18.312Z,100967.94
2023-05-01T06:52:45.880Z,100973.19
2023-05-01T06:55:14.368Z,100971.44
2023-05-01T06:57:42.823Z,100973.22
2023-05-01T07:00:13.836Z,100969.78
2023-05-01T07:02:41.495Z,100972.38
2023-05-01T07:05:10.019Z,100976.72
2023-05-01T07:07:38.944Z,100968.97
2023-05-01T07:10:11.419Z,100963.75
2023-05-01T07:12:39.550Z,100961.13
2023-05-01T07:15:10.166Z,100959.41
2023-05-01T07:17:38.043Z,100955.94
2023-05-01T07:20:08.614Z,100953.28
2023-05-01T07:22:36.425Z,100962.00
2023-05-01T07:25:04.565Z,100963.72
2023-05-01T07:27:32.060Z,100955.88
2023-05-01T07:29:59.762Z,100958.47
2023-05-01T07:32:27.901Z,100961.94
2023-05-01T07:34:55.817Z,100959.34
2023-05-01T07:37:23.887Z,100959.34
2023-05-01T07:39:55.558Z,100964.56
2023-05-01T07:42:23.472Z,100963.66
2023-05-01T07:44:54.034Z,100968.06
2023-05-01T07:47:21.601Z,100968.03
2023-05-01T07:49:49.873Z,100962.81
2023-05-01T07:52:17.893Z,100957.59
2023-05-01T07:54:50.991Z,100961.91
2023-05-01T07:57:18.856Z,100962.78
2023-05-01T07:59:46.367Z,100964.53
2023-05-01T08:02:14.069Z,100962.75
2023-05-01T08:04:41.976Z,100967.06
2023-05-01T08:07:09.858Z,100971.41
2023-05-01T08:09:37.305Z,100966.13
2023-05-01T08:12:05.286Z,100965.22
2023-05-01T08:14:32.818Z,100970.41
2023-05-01T08:16:59.841Z,100967.75
2023-05-01T08:19:28.032Z,100966.00
2023-05-01T08:21:55.586Z,100972.00
2023-05-01T08:24:23.573Z,100968.44
2023-05-01T08:26:51.521Z,100970.09
2023-05-01T08:29:19.360Z,100970.97
2023-05-01T08:31:46.905Z,100970.97
2023-05-01T08:34:16.101Z,100966.59
2023-05-01T08:36:44.206Z,100970.91
2023-05-01T08:39:12.127Z,100962.97
2023-05-01T08:41:40.019Z,100964.72
2023-05-01T08:44:08.653Z,100968.19
2023-05-01T08:46:48.265Z,100965.44
2023-05-01T08:49:16.966Z,100964.44
2023-05-01T08:51:50.039Z,100963.56
2023-05-01T08:54:17.293Z,100969.44
2023-05-01T08:56:44.804Z,100966.66
2023-05-01T08:59:12.603Z,100968.44
2023-05-01T09:01:39.790Z,100967.44
2023-05-01T09:04:07.917Z,100970.78
2023-05-01T09:06:35.535Z,100973.38
2023-05-01T09:09:03.945Z,100973.53
2023-05-01T09:11:31.388Z,100971.78
2023-05-01T09:13:59.399Z,100976.16
2023-05-01T09:16:27.470Z,100980.38
2023-05-01T09:18:54.678Z,100975.91
2023-05-01T09:21:22.577Z,100974.06
2023-05-01T09:23:51.346Z,100969.63
2023-05-01T09:26:19.336Z,100978.06
2023-05-01T09:28:48.083Z,100975.38
2023-05-01T09:31:23.084Z,100979.63
2023-05-01T09:34:13.729Z,100972.44
2023-05-01T09:36:41.243Z,100972.38
2023-05-01T09:39:08.499Z,100974.25
2023-05-01T09:41:36.715Z,100970.06
2023-05-01T09:44:04.475Z,100967.38
2023-05-01T09:46:32.495Z,100978.84
2023-05-01T09:49:00.650Z,100971.72
2023-05-01T09:51:33.547Z,100973.53
2023-05-01T09:54:05.431Z,100970.88
2023-05-01T09:56:33.969Z,100982.94
2023-05-01T09:59:17.273Z,100972.53
2023-05-01T10:01:46.528Z,100971.66
2023-05-01T10:04:13.707Z,100966.34
2023-05-01T10:06:41.572Z,100960.94
2023-05-01T10:09:17.621Z,100963.56
2023-05-01T10:11:57.459Z,100947.97
2023-05-01T10:14:26.857Z,100953.22
2023-05-01T10:16:55.010Z,100958.56
2023-05-01T10:19:22.584Z,100937.41
2023-05-01T10:21:50.057Z,100930.38
2023-05-01T10:24:18.370Z,100939.81
2023-05-01T10:26:45.804Z,100936.31
2023-05-01T10:29:13.508Z,100930.16
2023-05-01T10:31:48.390Z,100926.28
2023-05-01T10:34:17.606Z,100927.75
2023-05-01T10:36:46.681Z,100924.97
2023-05-01T10:39:33.480Z,100925.59
2023-05-01T10:42:04.634Z,100925.59
2023-05-01T10:44:32.201Z,100921.25
2023-05-01T10:47:00.340Z,100919.84
2023-05-01T10:50:02.486Z,100918.03
2023-05-01T10:52:30.643Z,100918.19
2023-05-01T10:55:34.838Z,100921.81
2023-05-01T10:58:02.283Z,100921.88
2023-05-01T11:00:30.033Z,100915.81
2023-05-01T11:03:55.251Z,100919.56
2023-05-01T11:06:24.054Z,100905.66
2023-05-01T11:08:51.907Z,100910.03
2023-05-01T11:11:21.360Z,100909.25
2023-05-01T11:14:09.935Z,100903.28
2023-05-01T11:16:39.966Z,100902.44
2023-05-01T11:19:08.073Z,100898.09
2023-05-01T11:21:38.850Z,100900.56
2023-05-01T11:24:09.526Z,100896.06
2023-05-01T11:26:40.824Z,100896.97
2023-05-01T11:29:09.601Z,100889.56
2023-05-01T11:31:37.480Z,100886.09
2023-05-01T11:34:06.900Z,100886.31
2023-05-01T11:36:50.595Z,100893.31
2023-05-01T11:39:18.685Z,100889.78
2023-05-01T11:41:46.550Z,100891.53
2023-05-01T11:44:16.249Z,100893.34
2023-05-01T11:46:44.287Z,100886.84
2023-05-01T11:49:11.905Z,100885.69
2023-05-01T11:51:38.981Z,100881.03
2023-05-01T11:54:07.251Z,100875.78
2023-05-01T11:56:44.022Z,100873.47
2023-05-01T11:59:14.113Z,100870.44
2023-05-01T12:01:42.140Z,100857.38
2023-05-01T12:04:09.789Z,100848.75
2023-05-01T12:06:40.745Z,100848.94
2023-05-01T12:09:08.324Z,100855.69
2023-05-01T12:11:36.666Z,100841.59
2023-05-01T12:14:06.492Z,100848.47
2023-05-01T12:16:34.484Z,100854.59
2023-05-01T12:19:03.005Z,100853.69
2023-05-01T12:21:32.117Z,100860.72
2023-05-01T12:24:16.443Z,100851.03
2023-05-01T12:26:44.768Z,100854.31
2023-05-01T12:29:12.168Z,100852.41
2023-05-01T12:31:49.553Z,100851.31
2023-05-01T12:34:17.295Z,100851.97
2023-05-01T12:36:53.440Z,100861.47
2023-05-01T12:39:21.061Z,100863.03
2023-05-01T12:42:14.804Z,100859.38
2023-05-01T12:44:43.901Z,100862.81
2023-05-01T12:47:11.078Z,100860.88
2023-05-01T12:49:38.742Z,100854.63
2023-05-01T12:52:09.558Z,100867.41
2023-05-01T12:54:38.220Z,100857.75
2023-05-01T12:57:10.318Z,100858.78
2023-05-01T12:59:40.624Z,100858.66
2023-05-01T13:02:12.777Z,100861.28
2023-05-01T13:04:40.330Z,100862.81
2023-05-01T13:07:15.116Z,100865.88
2023-05-01T13:10:29.524Z,100868.09
2023-05-01T13:12:57.567Z,100859.38
2023-05-01T13:15:24.239Z,100863.59
2023-05-01T13:17:51.368Z,100855.28
2023-05-01T13:20:26.703Z,100855.03
2023-05-01T13:22:54.189Z,100849.66
2023-05-01T13:25:21.796Z,100848.19
2023-05-01T13:28:11.833Z,100850.84
2023-05-01T13:30:39.430Z,100842.88
2023-05-01T13:33:07.997Z,100840.53
2023-05-01T13:35:36.184Z,100840.72
2023-05-01T13:38:03.682Z,100832.63
2023-05-01T13:40:31.056Z,100836.66
2023-05-01T13:42:58.671Z,100838.09
2023-05-01T13:45:26.374Z,100844.19
2023-05-01T13:47:57.965Z,100838.25
2023-05-01T13:50:25.417Z,100843.69
2023-05-01T13:52:56.097Z,100838.50
2023-05-01T13:55:28.580Z,100846.81
2023-05-01T13:57:56.505Z,100837.50
2023-05-01T14:00:23.566Z,100837.13
2023-05-01T14:02:58.252Z,100835.66
2023-05-01T14:05:30.239Z,100832.56
2023-05-01T14:07:58.435Z,100833.50
2023-05-01T14:10:27.904Z,100836.28
2023-05-01T14:13:05.623Z,100827.72
2023-05-01T14:15:39.547Z,100828.72
2023-05-01T14:18:07.794Z,100828.72
2023-05-01T14:20:35.552Z,100836.59
2023-05-01T14:23:06.022Z,100828.69
2023-05-01T14:25:34.908Z,100833.16
2023-05-01T14:28:05.681Z,100833.19
2023-05-01T14:30:39.628Z,100829.81
2023-05-01T14:33:08.016Z,100847.28
2023-05-01T14:35:36.373Z,100833.44
2023-05-01T14:38:14.396Z,100830.13
2023-05-01T14:40:42.220Z,100822.34
2023-05-01T14:43:10.460Z,100823.25
2023-05-01T14:45:38.226Z,100826.63
2023-05-01T14:48:06.599Z,100823.03
2023-05-01T14:50:34.547Z,100825.59
2023-05-01T14:53:02.429Z,100830.72
2023-05-01T14:55:32.188Z,100836.75
2023-05-01T14:57:59.951Z,100833.19
2023-05-01T15:00:27.903Z,100827.97
2023-05-01T15:02:55.713Z,100821.88
2023-05-01T15:05:26.032Z,100835.81
2023-05-01T15:07:56.744Z,100828.13
2023-05-01T15:10:24.015Z,100822.16
2023-05-01T15:12:52.252Z,100831.72
2023-05-01T15:15:20.128Z,100826.63
2023-05-01T15:17:48.021Z,100825.84
2023-05-01T15:20:15.620Z,100838.16
2023-05-01T15:22:43.493Z,100838.31
2023-05-01T15:25:13.641Z,100830.59
2023-05-01T15:27:45.936Z,100834.19
2023-05-01T15:30:15.162Z,100831.69
2023-05-01T15:32:43.606Z,100836.06
2023-05-01T15:35:11.923Z,100837.88
2023-05-01T15:37:40.189Z,100847.53
2023-05-01T15:40:12.081Z,100845.88
2023-05-01T15:42:40.232Z,100842.41
2023-05-01T15:45:10.375Z,100849.38
2023-05-01T15:47:38.210Z,100844.97
2023-05-01T15:50:13.763Z,100842.38
2023-05-01T15:52:45.102Z,100845.91
2023-05-01T15:55:12.538Z,100844.16
2023-05-01T15:57:40.579Z,100841.56
2023-05-01T16:00:10.848Z,100844.22
2023-05-01T16:02:38.854Z,100844.25
2023-05-01T16:05:07.410Z,100853.00
2023-05-01T16:07:34.550Z,100840.00
2023-05-01T16:10:10.113Z,100851.38
2023-05-01T16:12:37.896Z,100852.25
2023-05-01T16:15:07.649Z,100861.84
2023-05-01T16:17:39.755Z,100862.69
2023-05-01T16:20:11.004Z,100860.97
2023-05-01T16:22:42.438Z,100863.63
2023-05-01T16:25:12.278Z,100865.41
2023-05-01T16:27:44.336Z,100860.19
2023-05-01T16:30:16.488Z,100859.38
2023-05-01T16:32:44.832Z,100856.78
2023-05-01T16:35:15.989Z,100859.41
2023-05-01T16:37:43.482Z,100855.06
2023-05-01T16:40:11.193Z,100849.00
2023-05-01T16:42:38.935Z,100857.72
2023-05-01T16:45:09.599Z,100851.63
2023-05-01T16:47:37.184Z,100855.09
2023-05-01T16:50:05.278Z,100861.16
2023-05-01T16:52:33.700Z,100863.78
2023-05-01T16:55:02.000Z,100855.09
2023-05-01T16:57:30.138Z,100859.44
2023-05-01T16:59:58.314Z,100860.31
2023-05-01T17:02:26.425Z,100854.22
2023-05-01T17:04:54.321Z,100851.59
2023-05-01T17:07:24.049Z,100857.66
2023-05-01T17:09:51.966Z,100861.97
2023-05-01T17:12:19.546Z,100857.59
2023-05-01T17:14:47.069Z,100858.47
2023-05-01T17:17:14.874Z,100861.91
2023-05-01T17:19:42.754Z,100861.03
2023-05-01T17:22:10.686Z,100862.78
2023-05-01T17:24:38.617Z,100865.34
2023-05-01T17:27:06.208Z,100870.53
2023-05-01T17:29:34.111Z,100868.78
2023-05-01T17:32:02.034Z,100868.78
2023-05-01T17:34:30.399Z,100869.59
2023-05-01T17:36:59.105Z,100867.00
2023-05-01T17:39:28.174Z,100857.41
2023-05-01T17:41:55.688Z,100858.28
2023-05-01T17:44:24.230Z,100857.34
2023-05-01T17:46:52.109Z,100861.63
2023-05-01T17:49:20.066Z,100867.69
2023-05-01T17:51:49.244Z,100869.41
2023-05-01T17:54:17.831Z,100868.53
2023-05-01T17:56:45.789Z,100872.81
2023-05-01T17:59:13.631Z,100876.28
2023-05-01T18:01:41.348Z,100864.06
2023-05-01T18:04:09.213Z,100867.41
2023-05-01T18:06:37.020Z,100871.72
2023-05-01T18:09:05.272Z,100874.25
2023-05-01T18:11:35.899Z,100881.22
2023-05-01T18:14:04.269Z,100875.97
2023-05-01T18:16:32.492Z,100883.72
2023-05-01T18:19:00.331Z,100887.97
2023-05-01T18:21:27.828Z,100889.69
2023-05-01T18:23:56.065Z,100894.00
2023-05-01T18:26:26.193Z,100897.47
2023-05-01T18:28:53.816Z,100902.63
2023-05-01T18:31:21.780Z,100897.44
2023-05-01T18:33:49.793Z,100905.97
2023-05-01T18:36:17.654Z,100903.28
2023-05-01T18:38:45.896Z,100897.16
2023-05-01T18:41:13.864Z,100905.75
2023-05-01T18:43:41.763Z,100906.53
2023-05-01T18:46:09.328Z,100909.09
2023-05-01T18:48:40.409Z,100904.63
2023-05-01T18:51:09.560Z,100908.91
2023-05-01T18:53:37.642Z,100908.09
2023-05-01T18:56:06.420Z,100900.22
2023-05-01T18:58:34.809Z,100901.97
2023-05-01T19:01:02.870Z,100902.75
2023-05-01T19:03:30.735Z,100898.41
2023-05-01T19:05:58.761Z,100904.38
2023-05-01T19:08:26.734Z,100911.31
2023-05-01T19:10:54.349Z,100905.22
2023-05-01T19:13:22.300Z,100910.34
2023-05-01T19:15:53.582Z,100910.41
2023-05-01T19:18:21.308Z,100907.75
2023-05-01T19:20:48.937Z,100911.13
2023-05-01T19:23:16.462Z,100911.91
2023-05-01T19:25:44.448Z,100915.44
2023-05-01T19:28:12.377Z,100910.25
2023-05-01T19:30:41.289Z,100915.44
2023-05-01T19:33:10.445Z,100912.91
2023-05-01T19:35:38.576Z,100910.34
2023-05-01T19:38:06.445Z,100903.44
2023-05-01T19:40:34.235Z,100912.97
2023-05-01T19:43:01.641Z,100916.41
2023-05-01T19:45:29.627Z,100920.78
2023-05-01T19:47:57.506Z,100913.81
2023-05-01T19:50:25.645Z,100919.03
2023-05-01T19:52:53.982Z,100919.06
2023-05-01T19:55:22.322Z,100916.47
2023-05-01T19:57:50.089Z,100920.72
2023-05-01T20:00:17.936Z,100922.41
2023-05-01T20:02:45.828Z,100925.97
2023-05-01T20:05:14.079Z,100922.50
2023-05-01T20:07:41.384Z,100927.75
2023-05-01T20:10:10.648Z,100921.72
2023-05-01T20:12:38.383Z,100925.16
2023-05-01T20:15:08.648Z,100930.25
2023-05-01T20:17:36.528Z,100924.09
2023-05-01T20:20:04.766Z,100926.56
2023-05-01T20:22:32.347Z,100928.41
2023-05-01T20:24:59.984Z,100934.44
2023-05-01T20:27:28.513Z,100930.09
2023-05-01T20:29:56.180Z,100930.16
2023-05-01T20:32:23.941Z,100933.75
2023-05-01T20:34:55.210Z,100936.34
2023-05-01T20:37:25.991Z,100938.03
2023-05-01T20:39:53.843Z,100934.63
2023-05-01T20:42:21.557Z,100939.78
2023-05-01T20:44:49.399Z,100937.91
2023-05-01T20:47:16.964Z,100932.69
2023-05-01T20:49:44.718Z,100927.44
2023-05-01T20:52:12.543Z,100928.34
2023-05-01T20:54:40.504Z,100924.00
2023-05-01T20:57:08.708Z,100927.41
2023-05-01T20:59:35.802Z,100933.47
2023-05-01T21:02:26.283Z,100922.22
2023-05-01T21:04:54.585Z,100930.75
2023-05-01T21:07:21.586Z,100919.34
2023-05-01T21:09:49.475Z,100920.06
2023-05-01T21:12:17.116Z,100923.44
2023-05-01T21:14:45.054Z,100924.28
2023-05-01T21:17:13.131Z,100919.84
2023-05-01T21:19:43.932Z,100919.09
2023-05-01T21:22:18.762Z,100926.00
2023-05-01T21:24:46.190Z,100918.06
2023-05-01T21:27:14.133Z,100923.13
2023-05-01T21:29:42.058Z,100920.53
2023-05-01T21:32:09.552Z,100918.00
2023-05-01T21:34:37.054Z,100917.31
2023-05-01T21:37:04.590Z,100920.78
2023-05-01T21:39:32.186Z,100920.81
2023-05-01T21:41:59.275Z,100914.00
2023-05-01T21:44:29.648Z,100908.81
2023-05-01T21:46:57.862Z,100900.13
2023-05-01T21:49:25.791Z,100906.00
2023-05-01T21:51:53.978Z,100916.38
2023-05-01T21:54:21.709Z,100914.69
2023-05-01T21:56:49.497Z,100905.19
2023-05-01T21:59:17.384Z,100908.63
2023-05-01T22:01:45.528Z,100905.25
2023-05-01T22:04:17.588Z,100910.38
2023-05-01T22:06:45.576Z,100909.41
2023-05-01T22:09:13.261Z,100899.06
2023-05-01T22:11:40.803Z,100898.25
2023-05-01T22:14:08.539Z,100887.84
2023-05-01T22:16:36.424Z,100874.56
2023-05-01T22:19:03.842Z,100869.28
2023-05-01T22:21:32.032Z,100866.75
2023-05-01T22:24:00.013Z,100874.50
2023-05-01T22:26:27.525Z,100878.75
2023-05-01T22:28:55.486Z,100862.34
2023-05-01T22:31:23.522Z,100872.75
2023-05-01T22:33:53.183Z,100857.19
2023-05-01T22:36:20.778Z,100858.00
2023-05-01T22:38:48.604Z,100869.22
2023-05-01T22:41:16.014Z,100868.31
2023-05-01T22:43:43.473Z,100870.94
2023-05-01T22:46:11.298Z,100860.50
2023-05-01T22:48:39.154Z,100863.06
2023-05-01T22:51:06.895Z,100870.88
2023-05-01T22:53:34.519Z,100863.88
2023-05-01T22:56:02.491Z,100883.66
2023-05-01T22:58:30.674Z,100882.63
2023-05-01T23:01:01.504Z,100883.50
2023-05-01T23:03:29.094Z,100879.09
2023-05-01T23:05:57.559Z,100857.50
2023-05-01T23:08:25.826Z,100854.78
2023-05-01T23:10:53.486Z,100861.69
2023-05-01T23:13:23.416Z,100859.84
2023-05-01T23:15:52.433Z,100849.34
2023-05-01T23:18:31.005Z,100832.13
2023-05-01T23:20:58.555Z,100820.09
2023-05-01T23:23:30.170Z,100822.72
2023-05-01T23:26:25.884Z,100838.06
2023-05-01T23:29:00.301Z,100828.56
2023-05-01T23:31:31.285Z,100839.81
2023-05-01T23:33:59.887Z,100828.47
2023-05-01T23:36:29.033Z,100820.69
2023-05-01T23:38:56.907Z,100812.16
2023-05-01T23:41:26.007Z,100813.16
2023-05-01T23:43:53.455Z,100806.31
2023-05-01T23:46:21.165Z,100807.22
2023-05-01T23:48:49.436Z,100791.72
2023-05-01T23:51:17.747Z,100802.97
2023-05-01T23:53:45.743Z,100800.53
2023-05-01T23:56:13.323Z,100808.25
2023-05-01T23:58:40.945Z,100789.22
